sensor_id;sensor_type;location;lat;lon;timestamp;P1;durP1;ratioP1;P2;durP2;ratioP2
990;SDS011;484;48.128;11.602;2023-05-14T00:01:08;10.50;;;7.27;;
990;SDS011;484;48.128;11.602;2023-05-14T00:03:54;9.10;;;8.20;;
990;SDS011;484;48.128;11.602;2023-05-14T00:06:40;8.50;;;7.60;;
990;SDS011;484;48.128;11.602;2023-05-14T00:09:26;8.07;;;7.00;;
990;SDS011;484;48.128;11.602;2023-05-14T00:12:14;8.60;;;7.67;;
990;SDS011;484;48.128;11.602;2023-05-14T00:14:59;9.27;;;7.50;;
990;SDS011;484;48.128;11.602;2023-05-14T00:17:45;7.90;;;6.70;;
990;SDS011;484;48.128;11.602;2023-05-14T00:20:30;9.53;;;7.47;;
990;SDS011;484;48.128;11.602;2023-05-14T00:23:16;12.30;;;7.30;;
990;SDS011;484;48.128;11.602;2023-05-14T00:26:04;7.37;;;6.70;;
990;SDS011;484;48.128;11.602;2023-05-14T00:28:51;7.63;;;6.77;;
990;SDS011;484;48.128;11.602;2023-05-14T00:31:37;8.90;;;7.17;;
990;SDS011;484;48.128;11.602;2023-05-14T00:34:27;12.63;;;7.50;;
990;SDS011;484;48.128;11.602;2023-05-14T00:37:16;12.23;;;7.53;;
990;SDS011;484;48.128;11.602;2023-05-14T00:40:02;7.13;;;6.17;;
990;SDS011;484;48.128;11.602;2023-05-14T00:42:49;7.57;;;6.87;;
990;SDS011;484;48.128;11.602;2023-05-14T00:45:37;6.70;;;6.10;;
990;SDS011;484;48.128;11.602;2023-05-14T00:48:22;11.03;;;7.30;;
990;SDS011;484;48.128;11.602;2023-05-14T00:51:08;9.70;;;7.10;;
990;SDS011;484;48.128;11.602;2023-05-14T00:53:53;8.30;;;7.50;;
990;SDS011;484;48.128;11.602;2023-05-14T00:56:39;7.13;;;6.30;;
990;SDS011;484;48.128;11.602;2023-05-14T00:59:24;7.60;;;6.90;;
990;SDS011;484;48.128;11.602;2023-05-14T01:02:11;8.33;;;7.60;;
990;SDS011;484;48.128;11.602;2023-05-14T01:04:57;10.33;;;8.23;;
990;SDS011;484;48.128;11.602;2023-05-14T01:07:50;11.73;;;7.70;;
990;SDS011;484;48.128;11.602;2023-05-14T01:10:43;10.83;;;9.70;;
990;SDS011;484;48.128;11.602;2023-05-14T01:13:40;8.53;;;7.70;;
990;SDS011;484;48.128;11.602;2023-05-14T01:16:30;8.83;;;7.93;;
990;SDS011;484;48.128;11.602;2023-05-14T01:19:23;7.17;;;6.47;;
990;SDS011;484;48.128;11.602;2023-05-14T01:22:14;11.77;;;9.37;;
990;SDS011;484;48.128;11.602;2023-05-14T01:24:59;9.70;;;7.10;;
990;SDS011;484;48.128;11.602;2023-05-14T01:27:45;8.13;;;7.33;;
990;SDS011;484;48.128;11.602;2023-05-14T01:30:35;6.63;;;5.60;;
990;SDS011;484;48.128;11.602;2023-05-14T01:33:21;9.00;;;6.63;;
990;SDS011;484;48.128;11.602;2023-05-14T01:36:09;9.50;;;7.53;;
990;SDS011;484;48.128;11.602;2023-05-14T01:38:56;7.37;;;6.67;;
990;SDS011;484;48.128;11.602;2023-05-14T01:41:42;6.67;;;6.07;;
990;SDS011;484;48.128;11.602;2023-05-14T01:44:28;7.50;;;5.43;;
990;SDS011;484;48.128;11.602;2023-05-14T01:47:13;7.70;;;6.80;;
990;SDS011;484;48.128;11.602;2023-05-14T01:49:58;7.30;;;6.60;;
990;SDS011;484;48.128;11.602;2023-05-14T01:52:44;6.70;;;6.10;;
990;SDS011;484;48.128;11.602;2023-05-14T01:55:32;8.40;;;7.40;;
990;SDS011;484;48.128;11.602;2023-05-14T01:58:17;7.80;;;7.13;;
990;SDS011;484;48.128;11.602;2023-05-14T02:01:02;5.53;;;5.03;;
990;SDS011;484;48.128;11.602;2023-05-14T02:03:48;9.20;;;5.80;;
990;SDS011;484;48.128;11.602;2023-05-14T02:06:33;8.63;;;6.90;;
990;SDS011;484;48.128;11.602;2023-05-14T02:09:18;8.50;;;6.30;;
990;SDS011;484;48.128;11.602;2023-05-14T02:12:05;9.83;;;7.60;;
990;SDS011;484;48.128;11.602;2023-05-14T02:14:51;6.63;;;6.13;;
990;SDS011;484;48.128;11.602;2023-05-14T02:17:36;10.63;;;7.93;;
990;SDS011;484;48.128;11.602;2023-05-14T02:20:22;7.17;;;6.50;;
990;SDS011;484;48.128;11.602;2023-05-14T02:23:07;9.33;;;8.07;;
990;SDS011;484;48.128;11.602;2023-05-14T02:25:52;8.10;;;7.20;;
990;SDS011;484;48.128;11.602;2023-05-14T02:28:39;7.83;;;7.03;;
990;SDS011;484;48.128;11.602;2023-05-14T02:31:24;10.20;;;6.90;;
990;SDS011;484;48.128;11.602;2023-05-14T02:34:09;11.50;;;7.80;;
990;SDS011;484;48.128;11.602;2023-05-14T02:36:55;7.67;;;6.87;;
990;SDS011;484;48.128;11.602;2023-05-14T02:39:40;8.13;;;6.63;;
990;SDS011;484;48.128;11.602;2023-05-14T02:42:25;7.30;;;6.57;;
990;SDS011;484;48.128;11.602;2023-05-14T02:45:12;10.53;;;7.90;;
990;SDS011;484;48.128;11.602;2023-05-14T02:47:58;13.60;;;8.10;;
990;SDS011;484;48.128;11.602;2023-05-14T02:50:43;11.80;;;8.67;;
990;SDS011;484;48.128;11.602;2023-05-14T02:53:28;11.17;;;7.60;;
990;SDS011;484;48.128;11.602;2023-05-14T02:56:13;10.40;;;7.90;;
990;SDS011;484;48.128;11.602;2023-05-14T02:58:59;9.27;;;7.47;;
990;SDS011;484;48.128;11.602;2023-05-14T03:01:46;8.60;;;7.70;;
990;SDS011;484;48.128;11.602;2023-05-14T03:04:33;8.97;;;7.70;;
990;SDS011;484;48.128;11.602;2023-05-14T03:07:18;9.77;;;8.40;;
990;SDS011;484;48.128;11.602;2023-05-14T03:10:04;9.87;;;8.53;;
990;SDS011;484;48.128;11.602;2023-05-14T03:12:50;10.20;;;8.03;;
990;SDS011;484;48.128;11.602;2023-05-14T03:15:35;10.13;;;8.13;;
990;SDS011;484;48.128;11.602;2023-05-14T03:18:22;10.60;;;9.50;;
990;SDS011;484;48.128;11.602;2023-05-14T03:21:08;10.73;;;8.20;;
990;SDS011;484;48.128;11.602;2023-05-14T03:23:53;10.70;;;8.73;;
990;SDS011;484;48.128;11.602;2023-05-14T03:26:38;9.33;;;7.10;;
990;SDS011;484;48.128;11.602;2023-05-14T03:29:23;9.63;;;6.10;;
990;SDS011;484;48.128;11.602;2023-05-14T03:32:09;8.27;;;7.43;;
990;SDS011;484;48.128;11.602;2023-05-14T03:34:56;8.37;;;6.67;;
990;SDS011;484;48.128;11.602;2023-05-14T03:37:41;11.97;;;9.17;;
990;SDS011;484;48.128;11.602;2023-05-14T03:40:26;12.30;;;7.63;;
990;SDS011;484;48.128;11.602;2023-05-14T03:43:11;10.73;;;7.70;;
990;SDS011;484;48.128;11.602;2023-05-14T03:45:57;10.10;;;8.30;;
990;SDS011;484;48.128;11.602;2023-05-14T03:48:42;11.90;;;6.90;;
990;SDS011;484;48.128;11.602;2023-05-14T03:51:29;10.47;;;7.93;;
990;SDS011;484;48.128;11.602;2023-05-14T03:54:15;13.23;;;8.27;;
990;SDS011;484;48.128;11.602;2023-05-14T03:57:00;8.10;;;7.20;;
990;SDS011;484;48.128;11.602;2023-05-14T03:59:45;13.10;;;7.43;;
990;SDS011;484;48.128;11.602;2023-05-14T04:02:31;7.57;;;6.73;;
990;SDS011;484;48.128;11.602;2023-05-14T04:05:16;8.07;;;7.23;;
990;SDS011;484;48.128;11.602;2023-05-14T04:08:03;10.90;;;7.83;;
990;SDS011;484;48.128;11.602;2023-05-14T04:10:48;8.37;;;7.50;;
990;SDS011;484;48.128;11.602;2023-05-14T04:13:34;9.23;;;8.00;;
990;SDS011;484;48.128;11.602;2023-05-14T04:16:20;11.07;;;9.33;;
990;SDS011;484;48.128;11.602;2023-05-14T04:19:05;10.87;;;9.70;;
990;SDS011;484;48.128;11.602;2023-05-14T04:21:50;9.83;;;8.90;;
990;SDS011;484;48.128;11.602;2023-05-14T04:24:37;9.50;;;7.37;;
990;SDS011;484;48.128;11.602;2023-05-14T04:27:22;10.57;;;8.03;;
990;SDS011;484;48.128;11.602;2023-05-14T04:30:08;13.37;;;9.60;;
990;SDS011;484;48.128;11.602;2023-05-14T04:32:54;14.63;;;10.03;;
990;SDS011;484;48.128;11.602;2023-05-14T04:35:39;16.67;;;8.90;;
990;SDS011;484;48.128;11.602;2023-05-14T04:38:25;9.10;;;8.20;;
990;SDS011;484;48.128;11.602;2023-05-14T04:41:12;9.60;;;7.90;;
990;SDS011;484;48.128;11.602;2023-05-14T04:43:58;16.07;;;9.30;;
990;SDS011;484;48.128;11.602;2023-05-14T04:46:44;9.67;;;7.70;;
990;SDS011;484;48.128;11.602;2023-05-14T04:49:30;9.87;;;7.93;;
990;SDS011;484;48.128;11.602;2023-05-14T04:52:16;12.30;;;8.00;;
990;SDS011;484;48.128;11.602;2023-05-14T04:55:01;10.33;;;7.87;;
990;SDS011;484;48.128;11.602;2023-05-14T04:57:48;14.10;;;9.57;;
990;SDS011;484;48.128;11.602;2023-05-14T05:00:34;12.40;;;8.93;;
990;SDS011;484;48.128;11.602;2023-05-14T05:03:19;10.43;;;8.20;;
990;SDS011;484;48.128;11.602;2023-05-14T05:06:04;9.63;;;7.70;;
990;SDS011;484;48.128;11.602;2023-05-14T05:08:50;14.60;;;8.67;;
990;SDS011;484;48.128;11.602;2023-05-14T05:11:35;10.10;;;8.87;;
990;SDS011;484;48.128;11.602;2023-05-14T05:14:23;11.93;;;8.17;;
990;SDS011;484;48.128;11.602;2023-05-14T05:17:08;12.00;;;8.20;;
990;SDS011;484;48.128;11.602;2023-05-14T05:19:53;9.90;;;8.57;;
990;SDS011;484;48.128;11.602;2023-05-14T05:22:38;11.57;;;9.10;;
990;SDS011;484;48.128;11.602;2023-05-14T05:25:24;10.70;;;7.60;;
990;SDS011;484;48.128;11.602;2023-05-14T05:28:09;9.60;;;6.57;;
990;SDS011;484;48.128;11.602;2023-05-14T05:30:56;11.83;;;9.33;;
990;SDS011;484;48.128;11.602;2023-05-14T05:33:41;11.10;;;8.50;;
990;SDS011;484;48.128;11.602;2023-05-14T05:36:27;10.73;;;8.80;;
990;SDS011;484;48.128;11.602;2023-05-14T05:39:13;11.10;;;9.00;;
990;SDS011;484;48.128;11.602;2023-05-14T05:41:59;9.80;;;8.70;;
990;SDS011;484;48.128;11.602;2023-05-14T05:44:45;11.37;;;7.03;;
990;SDS011;484;48.128;11.602;2023-05-14T05:47:32;10.30;;;8.87;;
990;SDS011;484;48.128;11.602;2023-05-14T05:50:17;10.00;;;8.10;;
990;SDS011;484;48.128;11.602;2023-05-14T05:53:03;12.90;;;8.30;;
990;SDS011;484;48.128;11.602;2023-05-14T05:55:48;13.30;;;8.60;;
990;SDS011;484;48.128;11.602;2023-05-14T05:58:34;11.40;;;7.90;;
990;SDS011;484;48.128;11.602;2023-05-14T06:01:20;10.83;;;7.57;;
990;SDS011;484;48.128;11.602;2023-05-14T06:04:07;11.70;;;8.60;;
990;SDS011;484;48.128;11.602;2023-05-14T06:06:52;10.50;;;6.77;;
990;SDS011;484;48.128;11.602;2023-05-14T06:09:38;9.03;;;7.93;;
990;SDS011;484;48.128;11.602;2023-05-14T06:12:23;11.80;;;9.53;;
990;SDS011;484;48.128;11.602;2023-05-14T06:15:09;14.80;;;9.27;;
990;SDS011;484;48.128;11.602;2023-05-14T06:17:55;10.80;;;9.17;;
990;SDS011;484;48.128;11.602;2023-05-14T06:20:42;12.13;;;9.40;;
990;SDS011;484;48.128;11.602;2023-05-14T06:23:28;13.40;;;10.93;;
990;SDS011;484;48.128;11.602;2023-05-14T06:26:14;12.43;;;8.97;;
990;SDS011;484;48.128;11.602;2023-05-14T06:28:59;10.97;;;8.20;;
990;SDS011;484;48.128;11.602;2023-05-14T06:31:44;9.43;;;8.17;;
990;SDS011;484;48.128;11.602;2023-05-14T06:34:30;11.50;;;7.17;;
990;SDS011;484;48.128;11.602;2023-05-14T06:37:16;10.80;;;8.43;;
990;SDS011;484;48.128;11.602;2023-05-14T06:40:02;9.80;;;7.50;;
990;SDS011;484;48.128;11.602;2023-05-14T06:42:48;10.03;;;8.23;;
990;SDS011;484;48.128;11.602;2023-05-14T06:45:33;12.83;;;9.37;;
990;SDS011;484;48.128;11.602;2023-05-14T06:48:19;8.90;;;7.93;;
990;SDS011;484;48.128;11.602;2023-05-14T06:51:10;8.60;;;7.60;;
990;SDS011;484;48.128;11.602;2023-05-14T06:53:57;9.00;;;8.10;;
990;SDS011;484;48.128;11.602;2023-05-14T06:56:42;12.53;;;8.57;;
990;SDS011;484;48.128;11.602;2023-05-14T06:59:28;13.23;;;11.03;;
990;SDS011;484;48.128;11.602;2023-05-14T07:02:13;10.50;;;7.07;;
990;SDS011;484;48.128;11.602;2023-05-14T07:04:58;9.20;;;6.90;;
990;SDS011;484;48.128;11.602;2023-05-14T07:07:44;12.73;;;9.30;;
990;SDS011;484;48.128;11.602;2023-05-14T07:10:31;12.07;;;8.67;;
990;SDS011;484;48.128;11.602;2023-05-14T07:13:16;9.90;;;8.50;;
990;SDS011;484;48.128;11.602;2023-05-14T07:16:01;11.20;;;7.90;;
990;SDS011;484;48.128;11.602;2023-05-14T07:18:47;11.63;;;8.40;;
990;SDS011;484;48.128;11.602;2023-05-14T07:21:32;10.57;;;8.40;;
990;SDS011;484;48.128;11.602;2023-05-14T07:24:18;12.50;;;9.47;;
990;SDS011;484;48.128;11.602;2023-05-14T07:27:05;13.03;;;8.20;;
990;SDS011;484;48.128;11.602;2023-05-14T07:29:51;10.67;;;8.10;;
990;SDS011;484;48.128;11.602;2023-05-14T07:32:36;10.13;;;7.87;;
990;SDS011;484;48.128;11.602;2023-05-14T07:35:23;10.97;;;8.17;;
990;SDS011;484;48.128;11.602;2023-05-14T07:38:08;15.47;;;8.30;;
990;SDS011;484;48.128;11.602;2023-05-14T07:40:53;10.17;;;8.40;;
990;SDS011;484;48.128;11.602;2023-05-14T07:43:40;13.30;;;8.30;;
990;SDS011;484;48.128;11.602;2023-05-14T07:46:26;9.70;;;8.17;;
990;SDS011;484;48.128;11.602;2023-05-14T07:49:11;11.03;;;8.13;;
990;SDS011;484;48.128;11.602;2023-05-14T07:51:56;13.10;;;7.60;;
990;SDS011;484;48.128;11.602;2023-05-14T07:54:41;8.70;;;7.80;;
990;SDS011;484;48.128;11.602;2023-05-14T07:57:27;8.00;;;6.97;;
990;SDS011;484;48.128;11.602;2023-05-14T08:00:14;12.30;;;7.10;;
990;SDS011;484;48.128;11.602;2023-05-14T08:02:59;8.87;;;7.30;;
990;SDS011;484;48.128;11.602;2023-05-14T08:05:45;9.47;;;7.53;;
990;SDS011;484;48.128;11.602;2023-05-14T08:08:30;13.93;;;10.23;;
990;SDS011;484;48.128;11.602;2023-05-14T08:11:15;8.23;;;6.40;;
990;SDS011;484;48.128;11.602;2023-05-14T08:14:01;8.67;;;6.43;;
990;SDS011;484;48.128;11.602;2023-05-14T08:16:50;10.40;;;7.40;;
990;SDS011;484;48.128;11.602;2023-05-14T08:19:36;13.50;;;9.73;;
990;SDS011;484;48.128;11.602;2023-05-14T08:22:21;11.10;;;7.93;;
990;SDS011;484;48.128;11.602;2023-05-14T08:25:07;8.60;;;6.87;;
990;SDS011;484;48.128;11.602;2023-05-14T08:27:53;6.50;;;5.60;;
990;SDS011;484;48.128;11.602;2023-05-14T08:30:38;8.30;;;6.83;;
990;SDS011;484;48.128;11.602;2023-05-14T08:33:25;9.80;;;6.67;;
990;SDS011;484;48.128;11.602;2023-05-14T08:36:10;6.23;;;5.53;;
990;SDS011;484;48.128;11.602;2023-05-14T08:38:56;11.43;;;8.30;;
990;SDS011;484;48.128;11.602;2023-05-14T08:41:42;8.43;;;5.83;;
990;SDS011;484;48.128;11.602;2023-05-14T08:44:29;9.20;;;6.67;;
990;SDS011;484;48.128;11.602;2023-05-14T08:47:17;8.33;;;6.40;;
990;SDS011;484;48.128;11.602;2023-05-14T08:50:13;9.87;;;7.10;;
990;SDS011;484;48.128;11.602;2023-05-14T08:53:16;6.20;;;5.33;;
990;SDS011;484;48.128;11.602;2023-05-14T08:56:01;7.90;;;5.47;;
990;SDS011;484;48.128;11.602;2023-05-14T08:58:47;9.10;;;6.80;;
990;SDS011;484;48.128;11.602;2023-05-14T09:02:00;5.87;;;5.27;;
990;SDS011;484;48.128;11.602;2023-05-14T09:05:17;7.53;;;6.40;;
990;SDS011;484;48.128;11.602;2023-05-14T09:08:03;9.23;;;8.13;;
990;SDS011;484;48.128;11.602;2023-05-14T09:10:49;10.13;;;7.90;;
990;SDS011;484;48.128;11.602;2023-05-14T09:13:35;10.67;;;7.37;;
990;SDS011;484;48.128;11.602;2023-05-14T09:16:22;7.17;;;6.40;;
990;SDS011;484;48.128;11.602;2023-05-14T09:19:10;10.23;;;7.37;;
990;SDS011;484;48.128;11.602;2023-05-14T09:21:57;8.67;;;7.77;;
990;SDS011;484;48.128;11.602;2023-05-14T09:24:43;11.10;;;8.43;;
990;SDS011;484;48.128;11.602;2023-05-14T09:27:29;7.23;;;5.53;;
990;SDS011;484;48.128;11.602;2023-05-14T09:30:16;7.53;;;5.97;;
990;SDS011;484;48.128;11.602;2023-05-14T09:33:01;8.50;;;6.33;;
990;SDS011;484;48.128;11.602;2023-05-14T09:35:47;6.73;;;5.67;;
990;SDS011;484;48.128;11.602;2023-05-14T09:38:34;5.80;;;5.30;;
990;SDS011;484;48.128;11.602;2023-05-14T09:41:20;7.67;;;6.33;;
990;SDS011;484;48.128;11.602;2023-05-14T09:44:05;6.73;;;5.60;;
990;SDS011;484;48.128;11.602;2023-05-14T09:46:51;6.33;;;5.57;;
990;SDS011;484;48.128;11.602;2023-05-14T09:49:37;5.80;;;5.30;;
990;SDS011;484;48.128;11.602;2023-05-14T09:52:23;6.87;;;6.17;;
990;SDS011;484;48.128;11.602;2023-05-14T09:55:11;8.37;;;7.23;;
990;SDS011;484;48.128;11.602;2023-05-14T09:57:57;7.23;;;6.37;;
990;SDS011;484;48.128;11.602;2023-05-14T10:00:43;5.67;;;4.33;;
990;SDS011;484;48.128;11.602;2023-05-14T10:03:30;6.50;;;5.90;;
990;SDS011;484;48.128;11.602;2023-05-14T10:06:16;9.90;;;5.30;;
990;SDS011;484;48.128;11.602;2023-05-14T10:09:04;6.80;;;5.60;;
990;SDS011;484;48.128;11.602;2023-05-14T10:11:52;6.33;;;5.73;;
990;SDS011;484;48.128;11.602;2023-05-14T10:14:41;4.90;;;4.50;;
990;SDS011;484;48.128;11.602;2023-05-14T10:17:33;4.87;;;4.23;;
990;SDS011;484;48.128;11.602;2023-05-14T10:20:19;5.90;;;5.07;;
990;SDS011;484;48.128;11.602;2023-05-14T10:23:05;5.10;;;4.60;;
990;SDS011;484;48.128;11.602;2023-05-14T10:25:50;4.77;;;4.43;;
990;SDS011;484;48.128;11.602;2023-05-14T10:28:37;6.30;;;5.73;;
990;SDS011;484;48.128;11.602;2023-05-14T10:31:23;6.53;;;5.27;;
990;SDS011;484;48.128;11.602;2023-05-14T10:34:17;5.50;;;4.90;;
990;SDS011;484;48.128;11.602;2023-05-14T10:37:15;5.57;;;4.90;;
990;SDS011;484;48.128;11.602;2023-05-14T10:40:01;4.90;;;4.50;;
990;SDS011;484;48.128;11.602;2023-05-14T10:42:48;5.63;;;5.13;;
990;SDS011;484;48.128;11.602;2023-05-14T10:45:35;5.97;;;5.47;;
990;SDS011;484;48.128;11.602;2023-05-14T10:48:20;5.47;;;4.97;;
990;SDS011;484;48.128;11.602;2023-05-14T10:51:06;4.73;;;4.33;;
990;SDS011;484;48.128;11.602;2023-05-14T10:53:51;5.33;;;4.70;;
990;SDS011;484;48.128;11.602;2023-05-14T10:56:37;5.40;;;4.87;;
990;SDS011;484;48.128;11.602;2023-05-14T10:59:24;5.10;;;4.70;;
990;SDS011;484;48.128;11.602;2023-05-14T11:02:19;5.23;;;4.57;;
990;SDS011;484;48.128;11.602;2023-05-14T11:05:06;5.73;;;4.43;;
990;SDS011;484;48.128;11.602;2023-05-14T11:07:54;5.03;;;4.63;;
990;SDS011;484;48.128;11.602;2023-05-14T11:10:41;5.70;;;4.80;;
990;SDS011;484;48.128;11.602;2023-05-14T11:13:26;5.47;;;5.03;;
990;SDS011;484;48.128;11.602;2023-05-14T11:16:12;4.93;;;4.33;;
990;SDS011;484;48.128;11.602;2023-05-14T11:19:03;5.10;;;4.70;;
990;SDS011;484;48.128;11.602;2023-05-14T11:21:48;4.47;;;4.07;;
990;SDS011;484;48.128;11.602;2023-05-14T11:24:34;4.57;;;4.17;;
990;SDS011;484;48.128;11.602;2023-05-14T11:27:20;4.83;;;4.47;;
990;SDS011;484;48.128;11.602;2023-05-14T11:30:10;4.37;;;4.03;;
990;SDS011;484;48.128;11.602;2023-05-14T11:32:56;6.03;;;5.03;;
990;SDS011;484;48.128;11.602;2023-05-14T11:41:50;4.57;;;4.17;;
990;SDS011;484;48.128;11.602;2023-05-14T11:44:36;3.43;;;3.20;;
990;SDS011;484;48.128;11.602;2023-05-14T11:47:22;6.47;;;4.90;;
990;SDS011;484;48.128;11.602;2023-05-14T11:50:07;5.43;;;5.00;;
990;SDS011;484;48.128;11.602;2023-05-14T11:52:55;3.93;;;3.60;;
990;SDS011;484;48.128;11.602;2023-05-14T11:55:41;7.37;;;6.80;;
990;SDS011;484;48.128;11.602;2023-05-14T11:58:27;4.90;;;4.50;;
990;SDS011;484;48.128;11.602;2023-05-14T12:01:16;4.27;;;3.97;;
990;SDS011;484;48.128;11.602;2023-05-14T12:04:02;4.63;;;4.27;;
990;SDS011;484;48.128;11.602;2023-05-14T12:06:48;3.93;;;3.63;;
990;SDS011;484;48.128;11.602;2023-05-14T12:09:34;3.67;;;3.43;;
990;SDS011;484;48.128;11.602;2023-05-14T12:12:23;4.37;;;4.03;;
990;SDS011;484;48.128;11.602;2023-05-14T12:15:11;4.60;;;4.20;;
990;SDS011;484;48.128;11.602;2023-05-14T12:17:57;3.97;;;3.60;;
990;SDS011;484;48.128;11.602;2023-05-14T12:20:46;3.67;;;3.37;;
990;SDS011;484;48.128;11.602;2023-05-14T12:23:32;3.87;;;3.57;;
990;SDS011;484;48.128;11.602;2023-05-14T12:26:20;4.37;;;3.97;;
990;SDS011;484;48.128;11.602;2023-05-14T12:29:07;3.97;;;3.67;;
990;SDS011;484;48.128;11.602;2023-05-14T12:31:52;4.30;;;4.00;;
990;SDS011;484;48.128;11.602;2023-05-14T12:34:37;4.17;;;3.87;;
990;SDS011;484;48.128;11.602;2023-05-14T12:37:23;3.90;;;3.60;;
990;SDS011;484;48.128;11.602;2023-05-14T12:40:08;4.43;;;3.27;;
990;SDS011;484;48.128;11.602;2023-05-14T12:42:54;3.80;;;3.40;;
990;SDS011;484;48.128;11.602;2023-05-14T12:45:40;3.60;;;3.33;;
990;SDS011;484;48.128;11.602;2023-05-14T12:48:26;4.27;;;3.90;;
990;SDS011;484;48.128;11.602;2023-05-14T12:51:11;5.00;;;4.70;;
990;SDS011;484;48.128;11.602;2023-05-14T12:54:04;4.10;;;3.73;;
990;SDS011;484;48.128;11.602;2023-05-14T12:56:50;3.73;;;3.53;;
990;SDS011;484;48.128;11.602;2023-05-14T12:59:35;5.00;;;4.07;;
990;SDS011;484;48.128;11.602;2023-05-14T13:02:22;4.00;;;3.70;;
990;SDS011;484;48.128;11.602;2023-05-14T13:05:08;4.00;;;3.80;;
990;SDS011;484;48.128;11.602;2023-05-14T13:07:53;3.40;;;3.20;;
990;SDS011;484;48.128;11.602;2023-05-14T13:10:38;4.67;;;4.37;;
990;SDS011;484;48.128;11.602;2023-05-14T13:13:23;4.40;;;4.00;;
990;SDS011;484;48.128;11.602;2023-05-14T13:16:09;5.20;;;4.80;;
990;SDS011;484;48.128;11.602;2023-05-14T13:19:01;4.63;;;4.33;;
990;SDS011;484;48.128;11.602;2023-05-14T13:21:46;4.00;;;3.70;;
990;SDS011;484;48.128;11.602;2023-05-14T13:24:32;4.30;;;4.00;;
990;SDS011;484;48.128;11.602;2023-05-14T13:30:37;4.53;;;4.23;;
990;SDS011;484;48.128;11.602;2023-05-14T13:37:01;3.47;;;3.27;;
990;SDS011;484;48.128;11.602;2023-05-14T13:39:47;3.70;;;3.50;;
990;SDS011;484;48.128;11.602;2023-05-14T13:42:33;3.80;;;3.60;;
990;SDS011;484;48.128;11.602;2023-05-14T13:45:27;2.47;;;2.33;;
990;SDS011;484;48.128;11.602;2023-05-14T13:48:12;4.13;;;3.73;;
990;SDS011;484;48.128;11.602;2023-05-14T13:50:58;4.50;;;4.13;;
990;SDS011;484;48.128;11.602;2023-05-14T13:53:51;4.33;;;4.03;;
990;SDS011;484;48.128;11.602;2023-05-14T13:56:36;4.30;;;4.00;;
990;SDS011;484;48.128;11.602;2023-05-14T13:59:23;2.90;;;2.77;;
990;SDS011;484;48.128;11.602;2023-05-14T14:02:23;2.83;;;2.63;;
990;SDS011;484;48.128;11.602;2023-05-14T14:05:09;3.40;;;3.20;;
990;SDS011;484;48.128;11.602;2023-05-14T14:07:54;3.00;;;2.80;;
990;SDS011;484;48.128;11.602;2023-05-14T14:10:41;4.67;;;4.37;;
990;SDS011;484;48.128;11.602;2023-05-14T14:13:26;2.77;;;2.67;;
990;SDS011;484;48.128;11.602;2023-05-14T14:16:14;2.40;;;2.30;;
990;SDS011;484;48.128;11.602;2023-05-14T14:19:01;2.97;;;2.77;;
990;SDS011;484;48.128;11.602;2023-05-14T14:25:10;2.63;;;2.53;;
990;SDS011;484;48.128;11.602;2023-05-14T14:27:57;2.60;;;2.50;;
990;SDS011;484;48.128;11.602;2023-05-14T14:30:43;3.03;;;2.83;;
990;SDS011;484;48.128;11.602;2023-05-14T14:33:29;2.50;;;2.40;;
990;SDS011;484;48.128;11.602;2023-05-14T14:36:15;2.87;;;2.67;;
990;SDS011;484;48.128;11.602;2023-05-14T14:39:00;4.30;;;2.80;;
990;SDS011;484;48.128;11.602;2023-05-14T14:41:45;3.20;;;3.00;;
990;SDS011;484;48.128;11.602;2023-05-14T14:44:32;3.20;;;3.00;;
990;SDS011;484;48.128;11.602;2023-05-14T14:47:18;3.90;;;3.50;;
990;SDS011;484;48.128;11.602;2023-05-14T14:50:04;2.63;;;2.53;;
990;SDS011;484;48.128;11.602;2023-05-14T14:52:50;2.97;;;2.77;;
990;SDS011;484;48.128;11.602;2023-05-14T14:55:35;2.67;;;2.47;;
990;SDS011;484;48.128;11.602;2023-05-14T14:58:20;4.00;;;3.70;;
990;SDS011;484;48.128;11.602;2023-05-14T15:01:07;3.03;;;2.73;;
990;SDS011;484;48.128;11.602;2023-05-14T15:03:53;3.20;;;2.57;;
990;SDS011;484;48.128;11.602;2023-05-14T15:06:41;4.30;;;3.00;;
990;SDS011;484;48.128;11.602;2023-05-14T15:09:26;2.77;;;2.60;;
990;SDS011;484;48.128;11.602;2023-05-14T15:12:12;2.87;;;2.70;;
990;SDS011;484;48.128;11.602;2023-05-14T15:14:57;4.03;;;3.73;;
990;SDS011;484;48.128;11.602;2023-05-14T15:17:44;4.70;;;2.23;;
990;SDS011;484;48.128;11.602;2023-05-14T15:20:30;2.43;;;2.23;;
990;SDS011;484;48.128;11.602;2023-05-14T15:23:15;2.40;;;2.10;;
990;SDS011;484;48.128;11.602;2023-05-14T15:26:00;2.80;;;2.50;;
990;SDS011;484;48.128;11.602;2023-05-14T15:28:45;3.37;;;3.07;;
990;SDS011;484;48.128;11.602;2023-05-14T15:31:31;2.70;;;2.50;;
990;SDS011;484;48.128;11.602;2023-05-14T15:34:17;2.87;;;2.70;;
990;SDS011;484;48.128;11.602;2023-05-14T15:37:03;2.87;;;2.67;;
990;SDS011;484;48.128;11.602;2023-05-14T15:39:49;2.67;;;2.47;;
990;SDS011;484;48.128;11.602;2023-05-14T15:42:34;2.53;;;2.33;;
990;SDS011;484;48.128;11.602;2023-05-14T15:45:20;2.87;;;2.67;;
990;SDS011;484;48.128;11.602;2023-05-14T15:48:05;2.60;;;2.40;;
990;SDS011;484;48.128;11.602;2023-05-14T15:50:52;2.70;;;2.50;;
990;SDS011;484;48.128;11.602;2023-05-14T15:53:38;2.53;;;2.33;;
990;SDS011;484;48.128;11.602;2023-05-14T15:56:23;1.30;;;1.20;;
990;SDS011;484;48.128;11.602;2023-05-14T15:59:08;1.27;;;1.17;;
990;SDS011;484;48.128;11.602;2023-05-14T16:01:53;1.50;;;1.40;;
990;SDS011;484;48.128;11.602;2023-05-14T16:04:39;1.60;;;1.50;;
990;SDS011;484;48.128;11.602;2023-05-14T16:07:26;2.27;;;2.00;;
990;SDS011;484;48.128;11.602;2023-05-14T16:10:11;2.10;;;1.80;;
990;SDS011;484;48.128;11.602;2023-05-14T16:12:56;3.40;;;2.20;;
990;SDS011;484;48.128;11.602;2023-05-14T16:15:41;3.10;;;2.80;;
990;SDS011;484;48.128;11.602;2023-05-14T16:18:27;4.03;;;3.00;;
990;SDS011;484;48.128;11.602;2023-05-14T16:21:13;3.33;;;3.07;;
990;SDS011;484;48.128;11.602;2023-05-14T16:23:59;4.67;;;4.20;;
990;SDS011;484;48.128;11.602;2023-05-14T16:26:45;4.37;;;3.57;;
990;SDS011;484;48.128;11.602;2023-05-14T16:29:31;3.53;;;2.60;;
990;SDS011;484;48.128;11.602;2023-05-14T16:32:16;3.90;;;3.60;;
990;SDS011;484;48.128;11.602;2023-05-14T16:35:01;3.10;;;2.90;;
990;SDS011;484;48.128;11.602;2023-05-14T16:37:47;2.70;;;2.53;;
990;SDS011;484;48.128;11.602;2023-05-14T16:40:33;4.13;;;3.20;;
990;SDS011;484;48.128;11.602;2023-05-14T16:43:19;3.03;;;2.80;;
990;SDS011;484;48.128;11.602;2023-05-14T16:46:05;3.30;;;3.00;;
990;SDS011;484;48.128;11.602;2023-05-14T16:48:57;2.47;;;2.27;;
990;SDS011;484;48.128;11.602;2023-05-14T16:51:43;2.33;;;2.23;;
990;SDS011;484;48.128;11.602;2023-05-14T16:54:28;3.47;;;2.70;;
990;SDS011;484;48.128;11.602;2023-05-14T16:57:15;2.07;;;1.80;;
990;SDS011;484;48.128;11.602;2023-05-14T17:00:00;5.63;;;3.00;;
990;SDS011;484;48.128;11.602;2023-05-14T17:02:48;2.10;;;2.00;;
990;SDS011;484;48.128;11.602;2023-05-14T17:05:36;1.80;;;1.70;;
990;SDS011;484;48.128;11.602;2023-05-14T17:08:22;2.07;;;1.97;;
990;SDS011;484;48.128;11.602;2023-05-14T17:11:07;2.37;;;2.27;;
990;SDS011;484;48.128;11.602;2023-05-14T17:13:54;1.73;;;1.63;;
990;SDS011;484;48.128;11.602;2023-05-14T17:16:40;2.23;;;2.13;;
990;SDS011;484;48.128;11.602;2023-05-14T17:19:25;3.27;;;3.07;;
990;SDS011;484;48.128;11.602;2023-05-14T17:22:11;3.00;;;1.93;;
990;SDS011;484;48.128;11.602;2023-05-14T17:24:56;2.40;;;2.13;;
990;SDS011;484;48.128;11.602;2023-05-14T17:27:42;2.30;;;2.10;;
990;SDS011;484;48.128;11.602;2023-05-14T17:30:29;2.03;;;1.93;;
990;SDS011;484;48.128;11.602;2023-05-14T17:33:16;2.00;;;1.90;;
990;SDS011;484;48.128;11.602;2023-05-14T17:36:13;2.50;;;2.27;;
990;SDS011;484;48.128;11.602;2023-05-14T17:39:00;1.63;;;1.53;;
990;SDS011;484;48.128;11.602;2023-05-14T17:41:45;1.73;;;1.63;;